Time;durP1;ratioP1;P1;durP2;ratioP2;P2;SDS_P1;SDS_P2;PMS_P1;PMS_P2;Temp;Humidity;BMP_temperature;BMP_pressure;BME280_temperature;BME280_humidity;BME280_pressure;Samples;Min_cycle;Max_cycle;Signal;HPM_P1;HPM_P2
2024/03/06 00:02:11;;;;;;;13.48;7.00;;;;;;;3.76;100.00;102026.84;5008210;28;20026;-84
2024/03/06 00:04:38;;;;;;;13.15;7.38;;;;;;;3.75;100.00;102029.69;5027222;28;20033;-84
2024/03/06 00:07:04;;;;;;;13.05;7.57;;;;;;;3.75;100.00;102035.00;5008436;28;20033;-85
2024/03/06 00:09:29;;;;;;;11.80;7.25;;;;;;;3.74;100.00;102033.34;5013758;28;20034;-83
2024/03/06 00:11:58;;;;;;;13.88;7.60;;;;;;;3.74;100.00;102030.72;5010934;28;20041;-84
2024/03/06 00:14:23;;;;;;;11.98;7.25;;;;;;;3.75;100.00;102048.25;5050428;23;20052;-84
2024/03/06 00:16:50;;;;;;;11.57;7.25;;;;;;;3.71;100.00;102045.13;5048873;28;20021;-82
2024/03/06 00:19:17;;;;;;;12.50;7.47;;;;;;;3.69;100.00;102033.94;5043572;28;20401;-82
2024/03/06 00:21:42;;;;;;;13.13;8.00;;;;;;;3.74;100.00;102050.06;5026115;28;20025;-85
2024/03/06 00:24:15;;;;;;;12.40;6.90;;;;;;;3.72;100.00;102045.97;5033991;28;20044;-83
2024/03/06 00:26:42;;;;;;;12.45;7.00;;;;;;;3.72;100.00;102043.31;5037362;28;20036;-82
2024/03/06 00:29:10;;;;;;;11.60;7.25;;;;;;;3.73;100.00;102047.63;5030530;28;20122;-82
2024/03/06 00:31:42;;;;;;;12.82;7.80;;;;;;;3.70;100.00;102034.75;5024728;28;20029;-83
2024/03/06 00:34:08;;;;;;;12.15;7.88;;;;;;;3.72;100.00;102051.25;5047486;28;20051;-84
2024/03/06 00:36:36;;;;;;;11.85;7.30;;;;;;;3.70;100.00;102050.63;5035837;28;20522;-83
2024/03/06 00:39:04;;;;;;;13.02;7.55;;;;;;;3.67;100.00;102053.69;5019379;28;20048;-83
2024/03/06 00:41:30;;;;;;;12.40;6.82;;;;;;;3.68;100.00;102055.31;5019493;28;20060;-81
2024/03/06 00:43:56;;;;;;;13.90;7.72;;;;;;;3.70;100.00;102058.59;5026714;28;20048;-84
2024/03/06 00:46:26;;;;;;;13.18;7.20;;;;;;;3.68;100.00;102066.72;5013709;28;20033;-82
2024/03/06 00:48:54;;;;;;;12.80;7.30;;;;;;;3.64;100.00;102059.34;5033841;28;20131;-83
2024/03/06 00:51:36;;;;;;;14.98;7.45;;;;;;;3.68;100.00;102073.88;5018407;28;20095;-84
2024/03/06 00:54:03;;;;;;;13.73;7.10;;;;;;;3.67;100.00;102064.28;5033586;28;20065;-83
2024/03/06 00:56:31;;;;;;;10.00;6.20;;;;;;;3.70;100.00;102074.47;5031582;28;20064;-83
2024/03/06 00:58:59;;;;;;;14.48;7.85;;;;;;;3.62;100.00;102072.78;5030955;28;20065;-85
2024/03/06 01:01:27;;;;;;;11.40;6.60;;;;;;;3.62;100.00;102077.28;5019082;28;20486;-83
2024/03/06 01:03:53;;;;;;;12.00;6.72;;;;;;;3.64;100.00;102081.34;5049584;28;20041;-84
2024/03/06 01:06:19;;;;;;;14.52;7.35;;;;;;;3.63;100.00;102089.50;5029871;28;20044;-85
2024/03/06 01:08:49;;;;;;;12.13;6.50;;;;;;;3.61;100.00;102080.94;5032640;28;20067;-84
2024/03/06 01:11:17;;;;;;;11.38;6.63;;;;;;;3.61;100.00;102083.59;5029827;28;20029;-83
2024/03/06 01:13:43;;;;;;;11.95;5.97;;;;;;;3.62;100.00;102085.22;4992957;28;1042489;-84
2024/03/06 01:16:09;;;;;;;10.48;6.38;;;;;;;3.60;100.00;102089.91;5033888;28;20052;-83
2024/03/06 01:18:36;;;;;;;14.13;6.85;;;;;;;3.61;100.00;102091.53;5015498;28;20034;-85
2024/03/06 01:21:03;;;;;;;10.20;6.47;;;;;;;3.60;100.00;102101.31;5030576;28;20033;-86
2024/03/06 01:23:29;;;;;;;10.40;6.13;;;;;;;3.62;100.00;102094.00;5013956;28;20052;-84
2024/03/06 01:25:55;;;;;;;11.73;6.75;;;;;;;3.63;100.00;102100.91;5036127;28;20028;-84
2024/03/06 01:28:20;;;;;;;11.35;6.47;;;;;;;3.61;100.00;102096.84;5037350;28;20040;-84
2024/03/06 01:30:53;;;;;;;12.80;6.28;;;;;;;3.60;100.00;102092.53;5040541;28;20176;-84
2024/03/06 01:33:20;;;;;;;9.85;5.90;;;;;;;3.61;100.00;102097.66;5032484;28;20037;-85
2024/03/06 01:35:46;;;;;;;11.27;6.38;;;;;;;3.60;100.00;102095.19;5035760;28;20040;-85
2024/03/06 01:38:11;;;;;;;12.25;6.22;;;;;;;3.60;100.00;102100.50;5031981;28;20029;-84
2024/03/06 01:40:37;;;;;;;9.00;5.57;;;;;;;3.63;100.00;102105.41;5035716;28;20063;-86
2024/03/06 01:43:03;;;;;;;11.32;6.57;;;;;;;3.61;100.00;102092.34;5020448;28;20047;-85
2024/03/06 01:45:31;;;;;;;10.57;6.10;;;;;;;3.63;100.00;102105.41;5051774;28;20086;-85
2024/03/06 01:47:56;;;;;;;11.98;5.93;;;;;;;3.58;100.00;102103.31;5018295;28;20060;-83
2024/03/06 01:50:22;;;;;;;10.73;5.85;;;;;;;3.62;100.00;102104.59;5054126;28;20501;-85
2024/03/06 01:52:51;;;;;;;10.80;5.82;;;;;;;3.60;100.00;102101.31;5053446;28;20060;-86
2024/03/06 01:55:17;;;;;;;9.98;5.95;;;;;;;3.56;100.00;102106.16;5037182;28;20039;-84
2024/03/06 01:57:43;;;;;;;11.68;5.70;;;;;;;3.60;100.00;102113.75;5032412;28;20112;-84
2024/03/06 02:00:13;;;;;;;9.35;5.57;;;;;;;3.52;100.00;102104.91;5018699;28;20041;-85
2024/03/06 02:02:41;;;;;;;10.13;5.95;;;;;;;3.55;100.00;102115.13;5038538;28;20040;-84
2024/03/06 02:05:07;;;;;;;10.85;6.28;;;;;;;3.54;100.00;102113.47;5038200;28;20136;-85
2024/03/06 02:07:38;;;;;;;11.00;5.85;;;;;;;3.57;100.00;102117.56;5023564;28;20554;-85
2024/03/06 02:10:06;;;;;;;9.20;5.47;;;;;;;3.53;100.00;102117.16;5061422;28;20037;-84
2024/03/06 02:12:32;;;;;;;10.15;5.63;;;;;;;3.53;100.00;102126.91;5035635;28;20033;-84
2024/03/06 02:14:58;;;;;;;10.73;5.93;;;;;;;3.56;100.00;102127.34;5025592;28;20131;-84
2024/03/06 02:17:25;;;;;;;11.05;5.65;;;;;;;3.53;100.00;102122.44;5036372;28;20025;-85
2024/03/06 02:19:51;;;;;;;10.25;5.93;;;;;;;3.52;100.00;102126.09;5054958;28;20213;-86
2024/03/06 02:22:16;;;;;;;9.50;5.28;;;;;;;3.52;100.00;102123.47;5019862;28;20045;-84
2024/03/06 02:24:45;;;;;;;10.05;5.60;;;;;;;3.53;100.00;102113.69;5037683;28;20037;-84
2024/03/06 02:27:11;;;;;;;13.07;6.80;;;;;;;3.54;100.00;102121.44;5040019;28;20104;-84
2024/03/06 02:29:38;;;;;;;13.10;5.82;;;;;;;3.55;100.00;102127.53;5024715;28;20126;-84
2024/03/06 02:32:04;;;;;;;10.95;5.78;;;;;;;3.51;100.00;102124.44;5037717;28;20033;-86
2024/03/06 02:34:32;;;;;;;9.45;5.93;;;;;;;3.52;100.00;102135.84;5015727;28;20091;-85
2024/03/06 02:37:00;;;;;;;9.82;5.88;;;;;;;3.48;100.00;102129.31;5017125;28;20049;-85
2024/03/06 02:39:26;;;;;;;9.27;5.65;;;;;;;3.41;100.00;102123.94;5039723;28;20047;-85
2024/03/06 02:41:51;;;;;;;10.00;6.20;;;;;;;3.36;100.00;102133.47;5024415;28;20483;-85
2024/03/06 02:44:17;;;;;;;10.32;5.90;;;;;;;3.36;100.00;102136.09;5041005;28;20124;-84
2024/03/06 02:46:48;;;;;;;10.68;5.97;;;;;;;3.26;100.00;102129.28;5043633;28;20055;-84
2024/03/06 02:49:15;;;;;;;9.45;5.82;;;;;;;3.27;100.00;102130.13;5039387;28;20052;-84
2024/03/06 02:51:42;;;;;;;9.48;5.93;;;;;;;3.24;100.00;102122.53;5043675;28;20039;-85
2024/03/06 02:54:07;;;;;;;10.48;6.05;;;;;;;3.19;100.00;102124.94;5042425;28;20033;-84
2024/03/06 02:56:35;;;;;;;9.63;6.35;;;;;;;3.13;100.00;102123.84;5040824;28;20119;-85
2024/03/06 02:59:02;;;;;;;10.57;5.95;;;;;;;3.14;100.00;102133.44;5038060;28;20029;-84
2024/03/06 03:01:29;;;;;;;9.55;5.68;;;;;;;3.09;100.00;102124.41;5058111;28;20079;-85
2024/03/06 03:03:57;;;;;;;9.18;5.55;;;;;;;3.05;100.00;102129.25;5037383;28;20041;-83
2024/03/06 03:06:26;;;;;;;8.40;5.43;;;;;;;2.98;100.00;102128.34;5036826;28;20046;-85
2024/03/06 03:08:52;;;;;;;11.55;6.38;;;;;;;2.93;100.00;102126.25;5035809;28;20040;-83
2024/03/06 03:11:20;;;;;;;11.25;5.78;;;;;;;2.84;100.00;102127.34;5039638;28;20032;-83
2024/03/06 03:13:46;;;;;;;9.50;5.57;;;;;;;2.81;100.00;102127.72;5042571;28;20037;-83
2024/03/06 03:16:20;;;;;;;10.30;5.47;;;;;;;2.75;100.00;102133.75;5034981;28;20040;-83
2024/03/06 03:18:47;;;;;;;9.05;5.65;;;;;;;2.73;100.00;102133.94;5058305;28;20033;-85
2024/03/06 03:21:14;;;;;;;10.32;5.93;;;;;;;2.63;100.00;102125.44;5024296;28;20041;-83
2024/03/06 03:23:40;;;;;;;11.27;6.03;;;;;;;2.56;100.00;102126.38;5044174;28;20163;-84
2024/03/06 03:26:07;;;;;;;10.23;5.55;;;;;;;2.54;100.00;102128.38;5037956;28;20044;-84
2024/03/06 03:28:32;;;;;;;8.90;5.55;;;;;;;2.48;100.00;102135.22;5027216;28;20021;-83
2024/03/06 03:31:00;;;;;;;10.15;5.80;;;;;;;2.45;100.00;102139.06;5036626;28;20037;-84
2024/03/06 03:33:26;;;;;;;10.07;5.50;;;;;;;2.40;100.00;102146.72;5059072;28;20039;-85
2024/03/06 03:35:52;;;;;;;10.02;5.15;;;;;;;2.37;100.00;102147.09;5026056;28;20041;-82
2024/03/06 03:38:17;;;;;;;7.10;4.60;;;;;;;2.32;100.00;102144.16;5037039;28;20105;-85
2024/03/06 03:40:43;;;;;;;8.15;5.38;;;;;;;2.26;100.00;102142.22;5019890;28;20068;-86
2024/03/06 03:43:11;;;;;;;9.00;5.00;;;;;;;2.24;100.00;102154.81;5015394;28;20036;-84
2024/03/06 03:45:37;;;;;;;9.95;5.10;;;;;;;2.17;100.00;102145.97;5023507;28;20037;-82
2024/03/06 03:48:05;;;;;;;9.77;5.40;;;;;;;2.14;100.00;102157.69;5013174;28;20021;-83
2024/03/06 03:50:34;;;;;;;11.70;5.57;;;;;;;2.11;100.00;102157.25;5048380;28;20116;-84
2024/03/06 03:53:02;;;;;;;10.85;5.70;;;;;;;2.02;100.00;102150.38;5023340;28;20478;-84
2024/03/06 03:55:28;;;;;;;9.18;4.85;;;;;;;1.99;100.00;102153.38;5029467;28;20048;-83
2024/03/06 03:57:58;;;;;;;10.45;5.85;;;;;;;1.88;100.00;102157.25;5020644;28;20063;-83
2024/03/06 04:00:30;;;;;;;10.32;5.47;;;;;;;1.86;100.00;102170.66;5030750;28;20041;-83
2024/03/06 04:02:56;;;;;;;8.10;5.28;;;;;;;1.79;100.00;102169.72;5034582;28;20037;-83
2024/03/06 04:05:23;;;;;;;12.65;5.47;;;;;;;1.79;100.00;102163.59;5031719;28;20349;-83
2024/03/06 04:07:48;;;;;;;10.43;5.82;;;;;;;1.73;100.00;102159.84;5032184;28;20396;-83
2024/03/06 04:10:16;;;;;;;9.40;5.50;;;;;;;1.71;100.00;102166.31;5020059;28;20076;-83
2024/03/06 04:12:43;;;;;;;10.15;5.30;;;;;;;1.67;100.00;102167.66;5032690;28;20140;-83
2024/03/06 04:15:09;;;;;;;9.45;5.60;;;;;;;1.66;100.00;102174.75;5017485;28;20533;-83
2024/03/06 04:17:40;;;;;;;9.30;5.40;;;;;;;1.65;100.00;102183.69;5035679;28;20052;-82
2024/03/06 04:20:07;;;;;;;9.52;5.22;;;;;;;1.62;100.00;102178.72;5046142;28;20041;-83
2024/03/06 04:22:33;;;;;;;10.68;5.63;;;;;;;1.57;100.00;102175.81;5035830;28;20116;-83
2024/03/06 04:24:59;;;;;;;9.07;5.07;;;;;;;1.55;100.00;102177.78;5032821;28;20067;-82
2024/03/06 04:27:28;;;;;;;10.60;5.10;;;;;;;1.57;100.00;102175.81;5022474;28;20035;-85
2024/03/06 04:29:53;;;;;;;9.43;5.22;;;;;;;1.60;100.00;102172.81;5027983;28;20442;-82
2024/03/06 04:32:19;;;;;;;10.88;5.38;;;;;;;1.59;100.00;102176.44;5031271;28;20033;-82
2024/03/06 04:34:46;;;;;;;9.75;5.13;;;;;;;1.53;100.00;102171.88;5045638;28;20094;-83
2024/03/06 04:37:11;;;;;;;9.05;4.82;;;;;;;1.52;100.00;102183.44;5033482;28;20037;-83
2024/03/06 04:39:37;;;;;;;8.25;4.88;;;;;;;1.47;100.00;102185.75;5016206;28;20033;-84
2024/03/06 04:42:03;;;;;;;11.07;5.47;;;;;;;1.46;100.00;102174.38;5050832;28;20045;-83
2024/03/06 04:44:36;;;;;;;9.65;4.78;;;;;;;1.46;100.00;102189.41;5043719;28;20041;-85
2024/03/06 04:47:03;;;;;;;9.73;4.57;;;;;;;1.44;100.00;102191.41;5035575;28;20562;-82
2024/03/06 04:49:34;;;;;;;8.98;4.70;;;;;;;1.40;100.00;102176.91;5035200;28;20047;-84
2024/03/06 04:52:02;;;;;;;7.40;4.68;;;;;;;1.38;100.00;102189.47;5031121;28;20043;-82
2024/03/06 04:54:29;;;;;;;10.48;5.30;;;;;;;1.36;100.00;102190.47;5021368;28;20064;-84
2024/03/06 04:56:55;;;;;;;;;;;;;;;1.36;100.00;102205.47;5052719;28;20056;-82
2024/03/06 04:59:21;;;;;;;8.65;4.20;;;;;;;1.29;100.00;102186.88;5057151;28;19919;-83
2024/03/06 05:01:47;;;;;;;7.88;4.72;;;;;;;1.27;100.00;102191.47;5036519;28;20033;-83
2024/03/06 05:04:12;;;;;;;9.25;4.90;;;;;;;1.28;100.00;102187.00;5025990;28;20036;-82
2024/03/06 05:06:38;;;;;;;9.55;4.47;;;;;;;1.27;100.00;102201.22;5037677;28;20040;-83
2024/03/06 05:09:07;;;;;;;8.77;4.47;;;;;;;1.24;100.00;102206.84;5018058;28;20131;-83
2024/03/06 05:11:32;;;;;;;8.23;4.35;;;;;;;1.21;100.00;102201.91;5033049;28;20475;-84
2024/03/06 05:14:00;;;;;;;8.68;4.50;;;;;;;1.21;100.00;102201.91;5033137;28;20032;-83
2024/03/06 05:16:26;;;;;;;7.43;4.30;;;;;;;1.23;100.00;102211.31;5032570;28;20029;-84
2024/03/06 05:18:53;;;;;;;9.15;3.97;;;;;;;1.21;100.00;102218.56;5018124;28;20045;-85
2024/03/06 05:21:22;;;;;;;6.80;4.10;;;;;;;1.20;100.00;102224.00;5039719;28;20032;-84
2024/03/06 05:23:48;;;;;;;6.10;3.72;;;;;;;1.15;100.00;102215.78;5042559;28;20393;-84
2024/03/06 05:26:17;;;;;;;9.40;4.53;;;;;;;1.11;100.00;102215.31;5036375;28;20512;-84
2024/03/06 05:28:42;;;;;;;6.25;4.13;;;;;;;1.08;100.00;102224.41;5025022;28;20040;-84
2024/03/06 05:31:23;;;;;;;6.45;3.88;;;;;;;1.10;100.00;102232.13;5017966;28;20044;-82
2024/03/06 05:33:49;;;;;;;7.63;4.72;;;;;;;1.06;100.00;102238.75;5039861;28;20504;-85
2024/03/06 05:36:17;;;;;;;8.52;4.90;;;;;;;1.04;100.00;102238.09;5036572;28;20071;-84
2024/03/06 05:38:44;;;;;;;8.23;4.80;;;;;;;1.02;100.00;102240.91;5036210;28;20033;-84
2024/03/06 05:41:10;;;;;;;9.52;4.55;;;;;;;1.01;100.00;102254.25;5027622;28;20057;-84
2024/03/06 05:43:36;;;;;;;6.22;3.67;;;;;;;0.95;100.00;102247.84;5011102;28;20041;-84
2024/03/06 05:46:01;;;;;;;6.93;3.88;;;;;;;0.93;100.00;102257.72;5035961;28;20045;-83
2024/03/06 05:48:27;;;;;;;6.40;3.70;;;;;;;0.90;100.00;102265.19;5030003;28;20028;-84
2024/03/06 05:50:55;;;;;;;9.30;4.10;;;;;;;0.88;100.00;102267.13;5019341;28;20029;-83
2024/03/06 05:53:21;;;;;;;7.55;3.88;;;;;;;0.86;100.00;102282.31;5033413;28;20587;-83
2024/03/06 05:55:48;;;;;;;8.55;4.25;;;;;;;0.81;100.00;102282.81;5029825;28;20044;-83
2024/03/06 05:58:17;;;;;;;6.88;4.20;;;;;;;0.75;100.00;102280.88;5025848;28;20036;-84
2024/03/06 06:00:43;;;;;;;6.70;3.88;;;;;;;0.73;100.00;102283.66;5046196;28;20542;-82
2024/03/06 06:03:11;;;;;;;7.88;3.92;;;;;;;0.71;100.00;102293.53;5036068;28;20478;-83
2024/03/06 06:05:40;;;;;;;7.13;4.25;;;;;;;0.59;100.00;102294.88;5026853;28;20481;-84
2024/03/06 06:08:06;;;;;;;6.15;3.63;;;;;;;0.62;100.00;102302.47;5015354;28;20060;-83
2024/03/06 06:10:32;;;;;;;7.60;3.92;;;;;;;0.56;100.00;102297.84;5042739;28;20075;-83
2024/03/06 06:12:58;;;;;;;7.80;4.10;;;;;;;0.50;100.00;102301.97;5032138;28;20037;-83
2024/03/06 06:15:26;;;;;;;6.60;4.35;;;;;;;0.50;100.00;102314.31;5019007;28;20916;-84
2024/03/06 06:17:52;;;;;;;6.55;4.18;;;;;;;0.52;100.00;102307.06;5029714;28;20037;-84
2024/03/06 06:20:18;;;;;;;10.90;5.00;;;;;;;0.54;100.00;102315.63;5031393;28;20087;-83
2024/03/06 06:22:44;;;;;;;10.00;5.22;;;;;;;0.53;100.00;102306.06;5033928;28;20029;-84
2024/03/06 06:25:10;;;;;;;9.95;4.80;;;;;;;0.54;100.00;102318.25;5052311;28;20421;-83
2024/03/06 06:27:36;;;;;;;7.80;4.30;;;;;;;0.59;100.00;102323.88;5054059;28;20025;-82
2024/03/06 06:30:01;;;;;;;7.82;4.60;;;;;;;0.63;100.00;102330.47;5035341;28;20136;-84
2024/03/06 06:32:27;;;;;;;8.80;4.70;;;;;;;0.63;100.00;102330.47;5043501;28;20040;-84
2024/03/06 06:34:53;;;;;;;7.95;4.78;;;;;;;0.65;100.00;102332.94;5036405;28;20041;-82
2024/03/06 06:37:19;;;;;;;8.90;4.88;;;;;;;0.68;100.00;102343.16;5049760;28;20040;-84
2024/03/06 06:39:45;;;;;;;14.18;6.03;;;;;;;0.72;100.00;102345.28;5027270;28;20029;-83
2024/03/06 06:42:11;;;;;;;8.13;5.03;;;;;;;0.74;100.00;102348.56;5035055;28;20041;-84
2024/03/06 06:44:36;;;;;;;10.10;4.78;;;;;;;0.76;100.00;102351.91;5044147;28;20029;-83
2024/03/06 06:47:02;;;;;;;7.53;4.45;;;;;;;0.85;100.00;102359.78;5026575;28;20038;-83
2024/03/06 06:49:28;;;;;;;9.13;5.20;;;;;;;0.89;100.00;102358.50;5016788;28;20052;-83
2024/03/06 06:51:54;;;;;;;9.85;4.75;;;;;;;0.96;100.00;102359.47;5034534;28;20044;-83
2024/03/06 06:54:20;;;;;;;7.55;4.78;;;;;;;1.05;100.00;102367.19;5035891;28;20091;-84
2024/03/06 06:56:45;;;;;;;10.35;5.13;;;;;;;1.15;100.00;102366.19;5031179;28;20041;-83
2024/03/06 06:59:13;;;;;;;7.82;5.03;;;;;;;1.26;100.00;102371.13;5017008;28;20079;-82
2024/03/06 07:01:40;;;;;;;7.72;5.10;;;;;;;1.34;100.00;102364.00;5045466;28;20082;-83
2024/03/06 07:04:06;;;;;;;9.15;5.38;;;;;;;1.44;100.00;102373.56;5036228;28;20141;-82
2024/03/06 07:06:32;;;;;;;9.68;5.22;;;;;;;1.52;100.00;102378.81;5035844;28;20550;-82
2024/03/06 07:08:57;;;;;;;7.53;4.90;;;;;;;1.60;100.00;102376.16;5036277;28;20037;-83
2024/03/06 07:11:23;;;;;;;8.95;5.60;;;;;;;1.72;100.00;102381.88;5047126;28;20042;-82
2024/03/06 07:13:49;;;;;;;9.20;5.45;;;;;;;1.80;100.00;102368.66;5035565;28;20051;-83
2024/03/06 07:16:15;;;;;;;9.30;5.55;;;;;;;1.89;100.00;102381.63;5032510;28;20100;-83
2024/03/06 07:18:41;;;;;;;10.40;5.20;;;;;;;1.94;100.00;102378.50;5035523;28;20041;-82
2024/03/06 07:21:07;;;;;;;9.30;5.35;;;;;;;2.04;100.00;102378.28;5017547;28;20044;-82
2024/03/06 07:23:33;;;;;;;;;;;;;;;2.14;100.00;102378.88;5037877;28;20039;-82
2024/03/06 07:25:59;;;;;;;8.13;5.13;;;;;;;2.19;100.00;102376.56;5049056;28;19999;-82
2024/03/06 07:28:25;;;;;;;8.35;4.60;;;;;;;2.28;100.00;102379.97;5034235;28;20044;-81
2024/03/06 07:30:51;;;;;;;7.50;4.40;;;;;;;2.35;100.00;102386.19;5031679;28;20086;-82
2024/03/06 07:33:17;;;;;;;8.93;5.03;;;;;;;2.42;100.00;102382.66;5034214;28;20059;-82
2024/03/06 07:35:43;;;;;;;9.13;5.07;;;;;;;2.46;100.00;102391.91;5032057;28;20489;-82
2024/03/06 07:38:09;;;;;;;7.80;5.07;;;;;;;2.58;100.00;102402.91;5041671;28;20120;-82
2024/03/06 07:40:35;;;;;;;8.07;5.13;;;;;;;2.66;100.00;102396.75;5053071;28;20044;-82
2024/03/06 07:43:01;;;;;;;6.95;4.90;;;;;;;2.74;100.00;102394.03;5036754;28;20037;-82
2024/03/06 07:45:27;;;;;;;6.68;4.75;;;;;;;2.81;100.00;102400.25;5056303;28;20186;-84
2024/03/06 07:47:53;;;;;;;9.35;4.65;;;;;;;2.97;100.00;102405.41;5037320;28;20036;-83
2024/03/06 07:50:19;;;;;;;6.95;4.50;;;;;;;3.05;100.00;102403.69;5052543;28;20049;-84
2024/03/06 07:52:47;;;;;;;7.13;4.60;;;;;;;3.12;100.00;102404.66;5037398;28;20107;-83
2024/03/06 07:55:13;;;;;;;7.40;4.97;;;;;;;3.21;100.00;102408.84;5033090;28;20064;-83
2024/03/06 07:57:39;;;;;;;6.90;4.47;;;;;;;3.23;100.00;102397.06;5031161;28;20036;-84
2024/03/06 08:00:14;;;;;;;5.80;4.10;;;;;;;3.32;100.00;102411.06;5035250;28;20056;-82
2024/03/06 08:02:43;;;;;;;7.50;5.05;;;;;;;3.41;100.00;102414.44;5034739;28;20127;-82
2024/03/06 08:05:12;;;;;;;8.48;5.32;;;;;;;3.47;100.00;102411.91;5037633;28;20090;-82
2024/03/06 08:07:41;;;;;;;8.80;5.22;;;;;;;3.59;100.00;102427.31;5034358;28;20033;-81
2024/03/06 08:10:14;;;;;;;7.75;4.65;;;;;;;3.65;100.00;102421.31;5033851;28;20033;-82
2024/03/06 08:12:44;;;;;;;7.55;4.80;;;;;;;3.68;100.00;102420.94;5013162;28;20033;-82
2024/03/06 08:15:11;;;;;;;7.13;4.50;;;;;;;3.77;100.00;102425.16;5027941;28;20032;-82
2024/03/06 08:17:43;;;;;;;6.97;4.38;;;;;;;3.79;100.00;102429.28;5031639;28;20041;-82
2024/03/06 08:20:12;;;;;;;8.07;5.18;;;;;;;3.84;100.00;102432.19;5034185;28;20041;-82
2024/03/06 08:22:40;;;;;;;9.07;5.25;;;;;;;3.89;100.00;102423.69;5017250;28;20108;-81
2024/03/06 08:25:11;;;;;;;8.20;4.97;;;;;;;3.92;100.00;102431.25;5018583;28;20134;-82
2024/03/06 08:27:39;;;;;;;7.82;5.30;;;;;;;4.02;100.00;102423.03;5030792;28;20127;-82
2024/03/06 08:30:06;;;;;;;8.82;5.10;;;;;;;4.06;100.00;102427.78;5028829;28;20484;-82
2024/03/06 08:32:35;;;;;;;8.95;5.68;;;;;;;4.14;100.00;102432.16;5031267;28;20139;-81
2024/03/06 08:35:11;;;;;;;9.45;6.00;;;;;;;4.23;100.00;102435.53;5031322;28;20087;-82
2024/03/06 08:37:40;;;;;;;9.40;5.82;;;;;;;4.25;100.00;102449.41;5032945;28;20029;-82
2024/03/06 08:40:17;;;;;;;8.65;5.80;;;;;;;4.18;100.00;102448.50;5029283;28;20048;-82
2024/03/06 08:42:44;;;;;;;9.90;5.90;;;;;;;4.30;100.00;102457.63;5027808;28;20044;-83
2024/03/06 08:45:10;;;;;;;9.35;5.75;;;;;;;4.40;100.00;102450.19;5047140;28;20099;-83
2024/03/06 08:47:36;;;;;;;8.55;6.03;;;;;;;4.49;100.00;102443.78;5035620;28;20110;-83
2024/03/06 08:50:03;;;;;;;10.60;5.70;;;;;;;4.63;100.00;102448.22;5049221;28;20727;-83
2024/03/06 08:52:33;;;;;;;8.88;5.80;;;;;;;4.66;100.00;102442.53;5026737;28;20418;-83
2024/03/06 08:54:58;;;;;;;10.32;6.05;;;;;;;4.72;100.00;102446.25;5038226;28;20043;-83
2024/03/06 08:57:26;;;;;;;8.48;5.63;;;;;;;4.78;100.00;102442.03;5052728;28;20034;-84
2024/03/06 08:59:54;;;;;;;9.70;6.32;;;;;;;4.90;100.00;102461.75;5030633;28;20547;-83
2024/03/06 09:02:22;;;;;;;9.38;5.95;;;;;;;4.91;100.00;102450.94;5032415;28;20028;-83
2024/03/06 09:04:49;;;;;;;12.23;6.38;;;;;;;5.05;100.00;102467.81;5053639;28;20032;-83
2024/03/06 09:07:14;;;;;;;8.48;5.68;;;;;;;5.04;100.00;102460.88;5022739;28;20421;-84
2024/03/06 09:09:41;;;;;;;8.80;5.30;;;;;;;5.07;100.00;102465.78;5036382;28;20408;-83
2024/03/06 09:12:10;;;;;;;10.65;6.03;;;;;;;5.15;100.00;102457.72;5057520;28;20040;-83
2024/03/06 09:14:39;;;;;;;8.57;5.72;;;;;;;5.28;100.00;102469.44;5057169;28;20040;-82
2024/03/06 09:17:06;;;;;;;9.60;6.05;;;;;;;5.38;100.00;102480.56;5051142;28;20021;-81
2024/03/06 09:19:32;;;;;;;8.75;5.43;;;;;;;5.47;100.00;102476.75;5050022;28;20048;-81
2024/03/06 09:21:58;;;;;;;10.13;5.72;;;;;;;5.52;100.00;102486.78;5050772;28;20045;-81
2024/03/06 09:24:25;;;;;;;10.80;5.72;;;;;;;5.54;100.00;102488.25;5050948;28;20045;-82
2024/03/06 09:26:52;;;;;;;9.50;5.95;;;;;;;5.55;100.00;102489.06;5031073;28;20033;-82
2024/03/06 09:29:18;;;;;;;;;;;;;;;5.52;100.00;102484.97;5034829;28;20061;-82
2024/03/06 09:31:44;;;;;;;10.90;5.47;;;;;;;5.45;100.00;102489.41;5030409;28;20372;-85
2024/03/06 09:34:13;;;;;;;11.65;5.88;;;;;;;5.44;100.00;102493.09;5040156;28;20253;-81
2024/03/06 09:36:44;;;;;;;9.25;5.43;;;;;;;5.50;100.00;102502.94;5047339;28;20116;-81
2024/03/06 09:39:27;;;;;;;8.30;5.85;;;;;;;5.53;100.00;102504.38;5031473;28;20224;-82
2024/03/06 09:41:55;;;;;;;9.50;5.93;;;;;;;5.36;100.00;102495.88;5033407;28;20024;-82
2024/03/06 09:44:21;;;;;;;10.00;6.30;;;;;;;5.35;100.00;102504.84;5032028;28;20592;-84
2024/03/06 09:46:49;;;;;;;10.38;5.88;;;;;;;5.40;100.00;102502.44;5017582;28;20033;-81
2024/03/06 09:49:19;;;;;;;10.38;6.82;;;;;;;5.30;100.00;102508.09;5032402;28;20088;-82
2024/03/06 09:51:49;;;;;;;10.90;5.88;;;;;;;5.29;100.00;102495.00;5037815;28;20036;-83
2024/03/06 09:54:17;;;;;;;9.45;6.15;;;;;;;5.45;100.00;102503.50;5027151;28;20452;-83
2024/03/06 09:56:49;;;;;;;12.32;6.78;;;;;;;5.46;100.00;102501.69;5046155;28;20039;-82
2024/03/06 09:59:17;;;;;;;12.90;7.68;;;;;;;5.59;100.00;102496.47;5016179;28;20047;-82
2024/03/06 10:01:57;;;;;;;16.17;7.78;;;;;;;5.63;100.00;102502.22;5046097;28;20376;-82
2024/03/06 10:04:27;;;;;;;12.57;7.57;;;;;;;5.70;100.00;102509.22;5029696;28;20047;-84
2024/03/06 10:06:55;;;;;;;11.23;7.65;;;;;;;5.80;100.00;102497.41;5017450;28;20029;-83
2024/03/06 10:09:21;;;;;;;15.05;8.90;;;;;;;5.90;100.00;102511.19;5030178;28;20040;-83
2024/03/06 10:11:47;;;;;;;10.55;7.18;;;;;;;5.92;100.00;102507.34;5025552;28;20051;-81
2024/03/06 10:14:14;;;;;;;10.82;7.50;;;;;;;5.99;100.00;102515.38;5013023;28;20748;-83
2024/03/06 10:16:59;;;;;;;12.73;7.88;;;;;;;6.06;100.00;102513.56;5033824;28;20061;-83
2024/03/06 10:19:29;;;;;;;13.85;7.80;;;;;;;6.13;100.00;102517.09;5032246;28;20490;-84
2024/03/06 10:21:57;;;;;;;12.23;7.40;;;;;;;6.26;100.00;102514.50;5047581;28;20441;-83
2024/03/06 10:24:24;;;;;;;11.93;7.40;;;;;;;6.29;100.00;102524.72;5020286;28;20072;-82
2024/03/06 10:26:58;;;;;;;11.95;7.47;;;;;;;6.28;100.00;102527.59;5031695;28;20029;-82
2024/03/06 10:29:26;;;;;;;13.18;7.03;;;;;;;6.29;100.00;102510.59;5034647;28;20548;-82
2024/03/06 10:31:56;;;;;;;10.35;6.80;;;;;;;6.27;100.00;102524.09;5035238;28;20037;-82
2024/03/06 10:34:24;;;;;;;10.18;6.38;;;;;;;6.27;100.00;102526.78;5036656;28;20087;-82
2024/03/06 10:37:03;;;;;;;11.77;6.93;;;;;;;6.39;100.00;102523.56;5027776;28;20395;-83
2024/03/06 10:39:41;;;;;;;11.15;6.22;;;;;;;6.55;100.00;102523.22;5036033;28;20482;-82
2024/03/06 10:42:08;;;;;;;13.50;6.43;;;;;;;6.75;100.00;102518.78;5038150;28;20070;-82
2024/03/06 10:44:34;;;;;;;10.95;6.68;;;;;;;6.84;100.00;102517.59;5040207;28;20041;-84
2024/03/06 10:47:08;;;;;;;12.75;6.85;;;;;;;6.97;100.00;102521.28;5043081;28;20052;-84
2024/03/06 10:49:38;;;;;;;11.02;7.43;;;;;;;7.10;100.00;102515.97;5038210;28;20508;-84
2024/03/06 10:52:06;;;;;;;11.82;7.00;;;;;;;6.95;100.00;102518.81;5042043;28;20036;-82
2024/03/06 10:54:38;;;;;;;11.52;7.47;;;;;;;6.87;100.00;102515.53;5036649;28;20489;-81
2024/03/06 10:57:06;;;;;;;11.95;6.88;;;;;;;7.02;100.00;102516.16;5016736;28;20036;-82
2024/03/06 10:59:32;;;;;;;12.25;7.10;;;;;;;7.06;100.00;102523.56;5034386;28;20112;-83
2024/03/06 11:02:01;;;;;;;13.77;7.25;;;;;;;7.07;100.00;102514.53;5021775;28;20154;-83
2024/03/06 11:04:29;;;;;;;11.05;7.00;;;;;;;7.16;100.00;102517.81;5036360;28;20486;-81
2024/03/06 11:06:57;;;;;;;12.05;7.18;;;;;;;7.08;100.00;102512.69;5021648;28;20056;-81
2024/03/06 11:09:23;;;;;;;11.13;6.50;;;;;;;7.02;100.00;102518.81;5027318;28;20116;-83
2024/03/06 11:11:52;;;;;;;;;;;;;;;7.03;100.00;102523.13;5032085;28;20033;-84
2024/03/06 11:14:21;;;;;;;10.50;7.10;;;;;;;7.07;100.00;102516.38;5044443;28;19912;-85
2024/03/06 11:17:21;;;;;;;12.85;7.20;;;;;;;7.06;100.00;102525.41;5032761;28;20036;-83
2024/03/06 11:20:16;;;;;;;;;;;;;;;;;;;;;
